Time;durP1;ratioP1;P1;durP2;ratioP2;P2;SDS_P1;SDS_P2;PMS_P1;PMS_P2;Temp;Humidity;BMP_temperature;BMP_pressure;BME280_temperature;BME280_humidity;BME280_pressure;Samples;Min_cycle;Max_cycle;Signal;HPM_P1;HPM_P2
2022/10/31 00:00:22;;;;;;;19.13;15.05;;;10.50;99.90;;;;;;5022316;28;20030;-54
2022/10/31 00:02:48;;;;;;;14.52;12.95;;;10.40;99.90;;;;;;5016924;28;20026;-55
2022/10/31 00:05:13;;;;;;;16.20;14.20;;;10.50;99.90;;;;;;5021615;28;20028;-52
2022/10/31 00:07:39;;;;;;;22.25;15.18;;;10.40;99.90;;;;;;5014126;28;20065;-53
2022/10/31 00:10:05;;;;;;;16.58;13.13;;;10.50;99.90;;;;;;5011796;28;20030;-52
2022/10/31 00:12:31;;;;;;;22.27;17.70;;;10.40;99.90;;;;;;5023897;28;20073;-53
2022/10/31 00:14:56;;;;;;;23.42;17.92;;;10.40;99.90;;;;;;5021329;28;20068;-55
2022/10/31 00:17:22;;;;;;;26.63;19.70;;;10.40;99.90;;;;;;5026288;28;20033;-56
2022/10/31 00:19:47;;;;;;;50.08;32.55;;;10.40;99.90;;;;;;5016668;28;20172;-54
2022/10/31 00:22:13;;;;;;;48.13;33.33;;;10.50;99.90;;;;;;5027607;28;20531;-53
2022/10/31 00:24:41;;;;;;;48.65;34.65;;;10.40;99.90;;;;;;5020723;28;20030;-51
2022/10/31 00:27:07;;;;;;;41.90;30.00;;;10.40;99.90;;;;;;5022615;28;20026;-54
2022/10/31 00:29:32;;;;;;;44.88;31.38;;;10.50;99.90;;;;;;5025478;28;20400;-52
2022/10/31 00:31:58;;;;;;;39.00;26.55;;;10.50;99.90;;;;;;5021065;28;20115;-55
2022/10/31 00:34:23;;;;;;;33.90;25.17;;;10.50;99.90;;;;;;5023784;28;20053;-54
2022/10/31 00:36:49;;;;;;;35.55;24.95;;;10.50;99.90;;;;;;5019228;28;20037;-56
2022/10/31 00:39:14;;;;;;;29.98;21.40;;;10.50;99.90;;;;;;5023819;28;20399;-52
2022/10/31 00:41:40;;;;;;;26.67;21.63;;;10.60;99.90;;;;;;5018947;28;20435;-54
2022/10/31 00:44:05;;;;;;;26.30;20.92;;;10.60;99.90;;;;;;5022266;28;20036;-54
2022/10/31 00:46:31;;;;;;;24.30;19.55;;;10.60;99.90;;;;;;5019382;28;20365;-50
2022/10/31 00:48:57;;;;;;;23.92;19.60;;;10.60;99.90;;;;;;5021147;28;20553;-56
2022/10/31 00:51:22;;;;;;;24.90;19.17;;;10.60;99.90;;;;;;5020473;28;20033;-55
2022/10/31 00:53:48;;;;;;;23.77;18.15;;;10.70;99.90;;;;;;5021068;28;20033;-53
2022/10/31 00:56:13;;;;;;;24.75;18.25;;;10.70;99.90;;;;;;5023371;28;20091;-54
2022/10/31 00:58:39;;;;;;;25.83;18.45;;;10.70;99.90;;;;;;5022987;28;20033;-56
2022/10/31 01:01:04;;;;;;;22.13;15.00;;;10.70;99.90;;;;;;5014476;28;20030;-54
2022/10/31 01:03:32;;;;;;;22.85;17.63;;;10.70;99.90;;;;;;5022028;28;20022;-57
2022/10/31 01:06:06;;;;;;;20.35;16.30;;;10.70;99.90;;;;;;5021795;28;20588;-54
2022/10/31 01:08:33;;;;;;;20.35;15.52;;;10.70;99.90;;;;;;5007877;28;20097;-58
2022/10/31 01:11:03;;;;;;;19.95;14.95;;;10.70;99.90;;;;;;5013757;28;20579;-53
2022/10/31 01:13:28;;;;;;;20.73;15.82;;;10.70;99.90;;;;;;5022423;28;20105;-52
2022/10/31 01:15:56;;;;;;;21.70;17.15;;;10.70;99.90;;;;;;5020922;28;20451;-55
2022/10/31 01:18:21;;;;;;;26.48;17.92;;;10.70;99.90;;;;;;5016286;28;20060;-53
2022/10/31 01:20:47;;;;;;;25.63;16.52;;;10.70;99.90;;;;;;5019725;28;20484;-55
2022/10/31 01:23:12;;;;;;;26.40;18.25;;;10.70;99.90;;;;;;5021858;28;20026;-55
2022/10/31 01:25:38;;;;;;;24.40;17.05;;;10.80;99.90;;;;;;5019159;28;20021;-53
2022/10/31 01:28:03;;;;;;;23.42;16.67;;;10.80;99.90;;;;;;5018326;28;20055;-52
2022/10/31 01:30:29;;;;;;;21.77;16.77;;;10.80;99.90;;;;;;5022617;28;20022;-55
2022/10/31 01:32:54;;;;;;;22.45;16.60;;;10.80;99.90;;;;;;5014427;28;20028;-54
2022/10/31 01:35:20;;;;;;;28.55;18.25;;;10.90;99.90;;;;;;5019699;28;20079;-51
2022/10/31 01:37:45;;;;;;;25.50;19.20;;;10.90;99.90;;;;;;5015064;28;20101;-54
2022/10/31 01:40:11;;;;;;;25.33;18.65;;;10.90;99.90;;;;;;5022830;28;20030;-54
2022/10/31 01:42:36;;;;;;;24.23;17.92;;;11.00;99.90;;;;;;5017511;28;20105;-50
2022/10/31 01:45:03;;;;;;;25.08;18.27;;;11.00;99.90;;;;;;5022343;28;20048;-59
2022/10/31 01:47:45;;;;;;;26.30;16.92;;;11.00;99.90;;;;;;5018417;28;20492;-50
2022/10/31 01:50:42;;;;;;;25.13;17.95;;;11.00;99.90;;;;;;5020782;28;20051;-53
2022/10/31 01:53:10;;;;;;;21.00;16.77;;;11.00;99.90;;;;;;5015870;28;21264;-54
2022/10/31 01:55:40;;;;;;;24.38;18.67;;;11.00;99.90;;;;;;5017926;28;20048;-51
2022/10/31 01:58:14;;;;;;;25.55;17.08;;;11.00;99.90;;;;;;5015550;28;20507;-50
2022/10/31 02:00:43;;;;;;;24.83;17.67;;;11.00;99.90;;;;;;5018950;28;20037;-56
2022/10/31 02:03:09;;;;;;;27.45;18.38;;;11.00;99.90;;;;;;5018865;28;20045;-52
2022/10/31 02:05:35;;;;;;;21.25;17.45;;;11.00;99.90;;;;;;5020295;28;20028;-50
2022/10/31 02:08:08;;;;;;;27.40;19.42;;;11.00;99.90;;;;;;5019959;28;20022;-51
2022/10/31 02:10:35;;;;;;;20.60;16.92;;;11.00;99.90;;;;;;5020226;28;20026;-51
2022/10/31 02:13:04;;;;;;;23.27;17.40;;;11.00;99.90;;;;;;5019826;28;20054;-50
2022/10/31 02:15:31;;;;;;;25.15;19.25;;;11.00;99.90;;;;;;5016168;28;20092;-55
2022/10/31 02:17:57;;;;;;;27.83;19.42;;;11.00;99.90;;;;;;5019031;28;20030;-52
2022/10/31 02:20:25;;;;;;;27.20;18.27;;;11.00;99.90;;;;;;5021870;28;20056;-50
2022/10/31 02:23:05;;;;;;;24.45;17.95;;;11.00;99.90;;;;;;5020608;28;20032;-53
2022/10/31 02:26:01;;;;;;;26.83;19.90;;;11.00;99.90;;;;;;5021571;28;20125;-52
2022/10/31 02:28:50;;;;;;;31.52;21.45;;;11.10;99.90;;;;;;5009767;28;20455;-54
2022/10/31 02:31:34;;;;;;;25.58;19.30;;;11.10;99.90;;;;;;5014353;28;20091;-50
2022/10/31 02:34:10;;;;;;;29.55;19.08;;;11.20;99.90;;;;;;5018478;28;20510;-50
2022/10/31 02:36:49;;;;;;;25.73;18.88;;;11.20;99.90;;;;;;5013491;28;20050;-51
2022/10/31 02:39:20;;;;;;;24.90;17.83;;;11.20;99.90;;;;;;5016890;28;20022;-51
2022/10/31 02:42:01;;;;;;;28.77;19.60;;;11.20;99.90;;;;;;5019920;28;20037;-50
2022/10/31 02:44:45;;;;;;;32.58;20.33;;;11.30;99.90;;;;;;5018234;28;20022;-51
2022/10/31 02:47:16;;;;;;;28.83;18.95;;;11.30;99.90;;;;;;5016485;28;20022;-52
2022/10/31 02:49:53;;;;;;;27.02;19.13;;;11.30;99.90;;;;;;5021352;28;20029;-51
2022/10/31 02:52:23;;;;;;;26.50;20.02;;;11.30;99.90;;;;;;5010500;28;20041;-56
2022/10/31 02:54:49;;;;;;;27.75;19.98;;;11.30;99.90;;;;;;5024149;28;20057;-53
2022/10/31 02:57:19;;;;;;;27.02;19.83;;;11.30;99.90;;;;;;5012415;28;20064;-51
2022/10/31 02:59:48;;;;;;;29.80;20.27;;;11.30;99.90;;;;;;5023919;28;20094;-53
2022/10/31 03:02:43;;;;;;;25.67;19.15;;;11.30;99.90;;;;;;5015398;28;20033;-51
2022/10/31 03:05:16;;;;;;;27.60;19.98;;;11.30;99.90;;;;;;5025733;28;20980;-50
2022/10/31 03:07:57;;;;;;;27.45;19.77;;;11.30;99.90;;;;;;5017012;28;20492;-52
2022/10/31 03:10:40;;;;;;;27.98;20.00;;;11.30;99.90;;;;;;5007289;28;20025;-53
2022/10/31 03:13:29;;;;;;;27.10;19.98;;;11.30;99.90;;;;;;5018490;28;20022;-55
2022/10/31 03:16:04;;;;;;;25.73;19.08;;;11.30;99.90;;;;;;5017169;28;20018;-51
2022/10/31 03:18:34;;;;;;;24.83;18.73;;;11.30;99.90;;;;;;5012607;28;20453;-56
2022/10/31 03:21:22;;;;;;;23.38;18.15;;;11.30;99.90;;;;;;5017389;28;20037;-51
2022/10/31 03:23:51;;;;;;;22.80;17.27;;;11.30;99.90;;;;;;5017537;28;20014;-52
2022/10/31 03:26:17;;;;;;;30.83;18.52;;;11.20;99.90;;;;;;5011713;28;20079;-52
2022/10/31 03:28:49;;;;;;;24.27;18.52;;;11.20;99.90;;;;;;5021311;28;20049;-51
2022/10/31 03:31:18;;;;;;;26.38;18.38;;;11.20;99.90;;;;;;5019708;28;20025;-56
2022/10/31 03:33:45;;;;;;;27.02;19.10;;;11.20;99.90;;;;;;5020841;28;20100;-51
2022/10/31 03:36:15;;;;;;;28.08;19.30;;;11.20;99.90;;;;;;5017319;28;20088;-55
2022/10/31 03:38:42;;;;;;;23.80;17.58;;;11.20;99.90;;;;;;5018454;28;20051;-52
2022/10/31 03:41:13;;;;;;;25.45;18.52;;;11.20;99.90;;;;;;5018036;28;20044;-50
2022/10/31 03:43:45;;;;;;;26.63;18.45;;;11.10;99.90;;;;;;5017896;28;20469;-55
2022/10/31 03:46:11;;;;;;;26.70;19.85;;;11.20;99.90;;;;;;5020341;28;20480;-54
2022/10/31 03:48:37;;;;;;;24.80;19.63;;;11.10;99.90;;;;;;5023300;28;20095;-55
2022/10/31 03:51:19;;;;;;;25.35;18.17;;;11.10;99.90;;;;;;5022231;28;20080;-56
2022/10/31 03:53:54;;;;;;;24.75;18.35;;;11.10;99.90;;;;;;5009589;28;20025;-53
2022/10/31 03:56:32;;;;;;;34.85;20.15;;;11.10;99.90;;;;;;5015897;28;20025;-52
2022/10/31 03:59:00;;;;;;;25.92;18.70;;;11.10;99.90;;;;;;5015290;28;20500;-53
2022/10/31 04:01:28;;;;;;;33.15;19.40;;;11.10;99.90;;;;;;5024340;28;20030;-52
2022/10/31 04:03:55;;;;;;;26.38;19.02;;;11.10;99.90;;;;;;5021769;28;20022;-53
2022/10/31 04:06:23;;;;;;;33.80;22.15;;;11.20;99.90;;;;;;5021389;28;20117;-51
2022/10/31 04:08:54;;;;;;;32.72;21.80;;;11.20;99.90;;;;;;5015572;28;20059;-50
2022/10/31 04:11:24;;;;;;;30.58;21.45;;;11.20;99.90;;;;;;5016576;28;20503;-55
2022/10/31 04:13:51;;;;;;;37.30;24.67;;;11.30;99.90;;;;;;5018512;28;20014;-51
2022/10/31 04:16:17;;;;;;;49.05;26.17;;;11.30;99.90;;;;;;5024437;28;20024;-54
2022/10/31 04:18:43;;;;;;;42.28;25.48;;;11.40;99.90;;;;;;5018906;28;20026;-53
2022/10/31 04:21:08;;;;;;;37.05;22.80;;;11.50;99.90;;;;;;5023698;28;20044;-50
2022/10/31 04:23:36;;;;;;;39.70;25.40;;;11.50;99.90;;;;;;5023247;28;20025;-53
2022/10/31 04:26:02;;;;;;;41.28;24.23;;;11.60;99.90;;;;;;5017628;28;20101;-54
2022/10/31 04:28:27;;;;;;;37.90;23.77;;;11.60;99.90;;;;;;5023841;28;20144;-50
2022/10/31 04:30:53;;;;;;;39.25;24.20;;;11.60;99.90;;;;;;5035574;28;20485;-50
2022/10/31 04:33:19;;;;;;;48.42;26.00;;;11.60;99.90;;;;;;5023090;28;20032;-50
2022/10/31 04:35:45;;;;;;;44.47;26.85;;;11.70;99.90;;;;;;5013937;28;20033;-53
2022/10/31 04:38:11;;;;;;;40.72;24.80;;;11.70;99.90;;;;;;5020992;28;20025;-52
2022/10/31 04:40:37;;;;;;;47.47;25.52;;;11.70;99.90;;;;;;5020087;28;20108;-51
2022/10/31 04:43:02;;;;;;;38.97;25.15;;;11.80;99.90;;;;;;5021975;28;20025;-56
2022/10/31 04:45:28;;;;;;;45.53;25.73;;;11.80;99.90;;;;;;5023855;28;20117;-51
2022/10/31 04:47:54;;;;;;;43.58;23.70;;;11.90;99.90;;;;;;5022717;28;20018;-50
2022/10/31 04:50:19;;;;;;;47.65;27.77;;;11.90;99.90;;;;;;5021539;28;20022;-53
2022/10/31 04:52:46;;;;;;;46.63;25.80;;;11.90;99.90;;;;;;5011867;28;20600;-56
2022/10/31 04:55:13;;;;;;;54.95;27.60;;;11.90;99.90;;;;;;5023205;28;20033;-53
2022/10/31 04:57:44;;;;;;;48.63;26.63;;;12.00;99.90;;;;;;5015881;28;20578;-51
2022/10/31 05:00:11;;;;;;;44.15;25.95;;;12.00;99.90;;;;;;5022743;28;20049;-54
2022/10/31 05:02:53;;;;;;;47.30;25.02;;;12.00;99.90;;;;;;5014231;28;20443;-52
2022/10/31 05:05:23;;;;;;;54.60;27.25;;;12.00;99.90;;;;;;5013916;28;20443;-55
2022/10/31 05:07:50;;;;;;;49.45;26.45;;;12.00;99.90;;;;;;5014960;28;20026;-54
2022/10/31 05:10:19;;;;;;;47.60;26.58;;;12.10;99.90;;;;;;5007899;28;20087;-51
2022/10/31 05:12:53;;;;;;;44.85;25.45;;;12.10;99.90;;;;;;5015529;28;20029;-50
2022/10/31 05:15:20;;;;;;;57.33;29.23;;;12.10;99.90;;;;;;5015154;28;20022;-51
2022/10/31 05:17:45;;;;;;;46.30;25.75;;;12.10;99.90;;;;;;5023282;28;20037;-53
2022/10/31 05:20:13;;;;;;;53.17;26.90;;;12.20;99.90;;;;;;5022597;28;20508;-50
2022/10/31 05:22:46;;;;;;;50.90;27.65;;;12.20;99.90;;;;;;5022910;28;20404;-52
2022/10/31 05:25:12;;;;;;;52.10;27.42;;;12.20;99.90;;;;;;5019333;28;20018;-50
2022/10/31 05:27:42;;;;;;;52.55;27.10;;;12.20;99.90;;;;;;5018789;28;20105;-52
2022/10/31 05:30:10;;;;;;;45.75;27.10;;;12.20;99.90;;;;;;5040758;28;20032;-54
2022/10/31 05:32:40;;;;;;;50.63;24.92;;;12.20;99.90;;;;;;5016098;28;20072;-50
2022/10/31 05:35:08;;;;;;;50.08;25.05;;;12.30;99.90;;;;;;5016256;28;20120;-52
2022/10/31 05:37:35;;;;;;;50.47;25.50;;;12.30;99.90;;;;;;5017901;28;21896;-52
2022/10/31 05:40:01;;;;;;;48.38;26.38;;;12.30;99.90;;;;;;5020254;28;20484;-54
2022/10/31 05:42:27;;;;;;;47.35;25.42;;;12.20;99.90;;;;;;5013300;28;20040;-55
2022/10/31 05:44:52;;;;;;;52.15;25.10;;;12.30;99.90;;;;;;5014426;28;20388;-55
2022/10/31 05:47:18;;;;;;;39.28;21.58;;;12.20;99.90;;;;;;5025812;28;20481;-53
2022/10/31 05:49:43;;;;;;;42.13;24.98;;;12.30;99.90;;;;;;5018973;28;20599;-50
2022/10/31 05:52:09;;;;;;;44.28;22.95;;;12.30;99.90;;;;;;5013084;28;20422;-53
2022/10/31 05:54:34;;;;;;;45.83;23.17;;;12.30;99.90;;;;;;5018424;28;20038;-55
2022/10/31 05:57:00;;;;;;;34.25;21.15;;;12.30;99.90;;;;;;5018989;28;20508;-50
2022/10/31 05:59:25;;;;;;;46.45;21.58;;;12.30;99.90;;;;;;5019181;28;20484;-54
2022/10/31 06:01:51;;;;;;;33.42;18.98;;;12.30;99.90;;;;;;5018817;28;20388;-54
2022/10/31 06:04:16;;;;;;;38.72;20.55;;;12.30;99.90;;;;;;5024731;28;20534;-53
2022/10/31 06:06:42;;;;;;;36.42;18.98;;;12.30;99.90;;;;;;5019512;28;20034;-53
2022/10/31 06:09:07;;;;;;;41.00;21.50;;;12.30;99.90;;;;;;5015173;28;20087;-52
2022/10/31 06:11:33;;;;;;;41.75;21.83;;;12.30;99.90;;;;;;5016522;28;20022;-54
2022/10/31 06:13:58;;;;;;;39.95;22.77;;;12.30;99.90;;;;;;5011220;28;20041;-53
2022/10/31 06:16:24;;;;;;;46.22;23.40;;;12.30;99.90;;;;;;5014227;28;20035;-51
2022/10/31 06:18:50;;;;;;;40.47;19.83;;;12.30;99.90;;;;;;5018557;28;20061;-54
2022/10/31 06:21:15;;;;;;;36.55;21.33;;;12.30;99.90;;;;;;5025428;28;20697;-53
2022/10/31 06:23:40;;;;;;;39.03;21.52;;;12.30;99.90;;;;;;5017704;28;20768;-53
2022/10/31 06:26:06;;;;;;;35.78;19.85;;;12.30;99.90;;;;;;5014697;28;20034;-55
2022/10/31 06:28:32;;;;;;;34.03;18.08;;;12.30;99.90;;;;;;5015081;28;20041;-53
2022/10/31 06:30:57;;;;;;;41.00;19.25;;;12.30;99.90;;;;;;5017099;28;20025;-52
2022/10/31 06:33:23;;;;;;;36.28;19.60;;;12.30;99.90;;;;;;5014670;28;20523;-52
2022/10/31 06:35:48;;;;;;;43.95;21.40;;;12.30;99.90;;;;;;5014794;28;20029;-53
2022/10/31 06:38:14;;;;;;;36.28;19.67;;;12.30;99.90;;;;;;5015128;28;20025;-51
2022/10/31 06:40:40;;;;;;;31.23;18.05;;;12.30;99.90;;;;;;5021392;28;20270;-51
2022/10/31 06:43:05;;;;;;;35.70;20.13;;;12.30;99.90;;;;;;5016325;28;20091;-56
2022/10/31 06:45:31;;;;;;;33.08;18.20;;;12.30;99.90;;;;;;5016915;28;20014;-50
2022/10/31 06:47:57;;;;;;;35.80;19.45;;;12.30;99.90;;;;;;5019164;28;20014;-53
2022/10/31 06:50:23;;;;;;;34.03;18.90;;;12.40;99.90;;;;;;5017253;28;20013;-53
2022/10/31 06:52:53;;;;;;;33.72;18.63;;;12.40;99.90;;;;;;5018508;28;20128;-53
2022/10/31 06:55:22;;;;;;;43.72;17.42;;;12.40;99.90;;;;;;5009775;28;20036;-53
2022/10/31 06:57:58;;;;;;;44.00;16.83;;;12.40;99.90;;;;;;5017960;28;20033;-52
2022/10/31 07:00:25;;;;;;;33.22;16.45;;;12.40;99.90;;;;;;5017129;28;20513;-51
2022/10/31 07:02:55;;;;;;;51.05;18.75;;;12.30;99.90;;;;;;5020109;28;20028;-56
2022/10/31 07:05:21;;;;;;;31.92;16.33;;;12.40;99.90;;;;;;5018335;28;20033;-55
2022/10/31 07:07:46;;;;;;;27.45;15.35;;;12.40;99.90;;;;;;5015266;28;20042;-54
2022/10/31 07:10:12;;;;;;;28.75;15.05;;;12.40;99.90;;;;;;5018748;28;20017;-55
2022/10/31 07:12:37;;;;;;;28.55;15.45;;;12.40;99.90;;;;;;5020493;28;20026;-53
2022/10/31 07:15:04;;;;;;;25.52;14.68;;;12.40;99.90;;;;;;5019841;28;20026;-54
2022/10/31 07:17:30;;;;;;;29.30;14.05;;;12.40;99.90;;;;;;5020780;28;20040;-55
2022/10/31 07:19:56;;;;;;;22.67;13.48;;;12.40;99.90;;;;;;5020372;28;20020;-53
2022/10/31 07:22:21;;;;;;;27.63;15.00;;;12.40;99.90;;;;;;5020497;28;20030;-54
2022/10/31 07:24:47;;;;;;;28.50;14.85;;;12.40;99.90;;;;;;5020799;28;20126;-51
2022/10/31 07:27:12;;;;;;;27.13;13.30;;;12.40;99.90;;;;;;5017437;28;20025;-52
2022/10/31 07:29:38;;;;;;;31.33;15.68;;;12.40;99.90;;;;;;5017418;28;20178;-54
2022/10/31 07:32:03;;;;;;;27.58;15.25;;;12.50;99.90;;;;;;5022282;28;20116;-52
2022/10/31 07:34:29;;;;;;;29.73;15.82;;;12.50;99.90;;;;;;5017429;28;20101;-53
2022/10/31 07:36:55;;;;;;;29.65;15.02;;;12.50;99.90;;;;;;5023168;28;20110;-50
2022/10/31 07:39:20;;;;;;;27.98;14.63;;;12.50;99.90;;;;;;5017484;28;20032;-55
2022/10/31 07:41:46;;;;;;;31.20;14.75;;;12.50;99.90;;;;;;5023622;28;20075;-52
2022/10/31 07:44:11;;;;;;;26.63;14.75;;;12.50;99.90;;;;;;5017808;28;20076;-49
2022/10/31 07:46:36;;;;;;;23.75;14.30;;;12.50;99.90;;;;;;5023407;28;20022;-50
2022/10/31 07:49:02;;;;;;;27.73;15.82;;;12.50;99.90;;;;;;5034067;28;20025;-54
2022/10/31 07:51:28;;;;;;;29.15;15.30;;;12.50;99.90;;;;;;5026556;28;20029;-52
2022/10/31 07:53:53;;;;;;;27.00;15.32;;;12.50;99.90;;;;;;5018448;28;20030;-54
2022/10/31 07:56:19;;;;;;;24.52;14.35;;;12.50;99.90;;;;;;5017413;28;20056;-53
2022/10/31 07:58:45;;;;;;;26.77;14.93;;;12.50;99.90;;;;;;5015919;28;20510;-54
2022/10/31 08:01:10;;;;;;;26.25;14.43;;;12.50;99.90;;;;;;5021205;28;20034;-59
2022/10/31 08:03:36;;;;;;;30.50;16.17;;;12.50;99.90;;;;;;5011403;28;20032;-51
2022/10/31 08:06:01;;;;;;;23.92;15.60;;;12.50;99.90;;;;;;5011938;28;20088;-54
2022/10/31 08:08:27;;;;;;;24.27;14.63;;;12.50;99.90;;;;;;5018111;28;20042;-54
2022/10/31 08:10:54;;;;;;;22.73;15.38;;;12.50;99.90;;;;;;5017709;28;20112;-52
2022/10/31 08:13:19;;;;;;;20.13;13.80;;;12.50;99.90;;;;;;5016900;28;20064;-50
2022/10/31 08:15:49;;;;;;;19.48;13.43;;;12.60;99.90;;;;;;5018618;28;20025;-52
2022/10/31 08:18:15;;;;;;;20.45;14.43;;;12.60;99.90;;;;;;5012992;28;20500;-56
2022/10/31 08:20:42;;;;;;;22.17;14.10;;;12.60;99.90;;;;;;5017874;28;20040;-55
2022/10/31 08:23:09;;;;;;;19.83;13.57;;;12.50;99.90;;;;;;5017250;28;20112;-52
2022/10/31 08:25:35;;;;;;;21.63;14.43;;;12.50;99.90;;;;;;5006728;28;20068;-50
2022/10/31 08:28:01;;;;;;;24.55;15.27;;;12.50;99.90;;;;;;5019012;28;20507;-52
2022/10/31 08:30:29;;;;;;;22.40;14.90;;;12.60;99.90;;;;;;5021994;28;20029;-54
2022/10/31 08:33:06;;;;;;;20.70;13.82;;;12.60;99.90;;;;;;5017920;28;20500;-51
2022/10/31 08:35:33;;;;;;;21.45;14.20;;;12.60;99.90;;;;;;5018719;28;20075;-54
2022/10/31 08:37:59;;;;;;;21.38;14.35;;;12.70;99.90;;;;;;5019662;28;20026;-52
2022/10/31 08:40:25;;;;;;;18.63;13.32;;;12.60;99.90;;;;;;5018156;28;20026;-54
2022/10/31 08:43:02;;;;;;;22.23;14.98;;;12.60;99.90;;;;;;5020372;28;20029;-50
2022/10/31 08:45:28;;;;;;;17.98;13.05;;;12.60;99.90;;;;;;5021100;28;20119;-51
2022/10/31 08:47:59;;;;;;;20.92;13.65;;;12.60;99.90;;;;;;5021683;28;20026;-54
2022/10/31 08:50:25;;;;;;;27.83;15.38;;;12.60;99.90;;;;;;5021066;28;20021;-52
2022/10/31 08:52:51;;;;;;;27.00;14.77;;;12.60;99.90;;;;;;5016908;28;20025;-49
2022/10/31 08:55:16;;;;;;;20.58;13.93;;;12.60;99.90;;;;;;5016895;28;20425;-53
2022/10/31 08:57:42;;;;;;;19.20;13.75;;;12.60;99.90;;;;;;5012599;28;20045;-53
2022/10/31 09:00:08;;;;;;;17.90;12.93;;;12.70;99.90;;;;;;5019345;28;20037;-49
2022/10/31 09:02:33;;;;;;;24.95;14.88;;;12.70;99.90;;;;;;5011387;28;20099;-49
2022/10/31 09:04:59;;;;;;;33.70;13.60;;;12.70;99.90;;;;;;5021769;28;20485;-52
2022/10/31 09:07:25;;;;;;;23.55;14.77;;;12.80;99.90;;;;;;5012370;28;20488;-52
2022/10/31 09:09:50;;;;;;;20.42;14.27;;;12.80;99.90;;;;;;5012310;28;20019;-49
2022/10/31 09:12:16;;;;;;;23.10;15.05;;;12.80;99.90;;;;;;5013989;28;20033;-53
2022/10/31 09:14:41;;;;;;;22.10;14.20;;;12.90;99.90;;;;;;5011639;28;20396;-49
2022/10/31 09:17:07;;;;;;;22.58;14.10;;;12.90;99.90;;;;;;5020222;28;20481;-53
2022/10/31 09:19:32;;;;;;;17.50;12.88;;;13.00;99.90;;;;;;5020312;28;20036;-50
2022/10/31 09:21:58;;;;;;;18.58;12.45;;;13.00;99.90;;;;;;5022423;28;20045;-53
2022/10/31 09:24:23;;;;;;;18.33;13.50;;;13.00;99.90;;;;;;5015510;28;20029;-54
2022/10/31 09:26:49;;;;;;;22.30;13.45;;;13.00;99.90;;;;;;5014501;28;20025;-52
2022/10/31 09:29:14;;;;;;;20.15;13.27;;;13.10;99.90;;;;;;5022974;28;20028;-51
2022/10/31 09:31:40;;;;;;;21.70;13.90;;;13.10;99.90;;;;;;5022388;28;20030;-50
2022/10/31 09:34:05;;;;;;;22.52;14.20;;;13.10;99.90;;;;;;5020396;28;20025;-55
2022/10/31 09:36:31;;;;;;;22.20;14.75;;;13.10;99.90;;;;;;5022385;28;20112;-53
2022/10/31 09:38:56;;;;;;;16.13;12.40;;;13.20;99.90;;;;;;5021421;28;20059;-50
2022/10/31 09:41:55;;;;;;;19.17;14.38;;;13.20;99.90;;;;;;5021323;28;20034;-54
2022/10/31 09:44:40;;;;;;;20.15;12.90;;;13.20;99.90;;;;;;5016100;28;20025;-51
2022/10/31 09:47:24;;;;;;;21.30;14.18;;;13.20;99.90;;;;;;5024898;28;20487;-55
2022/10/31 09:50:20;;;;;;;16.30;11.13;;;13.30;99.90;;;;;;5019073;28;20146;-54
2022/10/31 09:53:32;;;;;;;13.98;10.90;;;13.30;99.90;;;;;;5014515;28;20025;-54
2022/10/31 09:55:59;;;;;;;17.00;12.68;;;13.30;99.90;;;;;;4997157;28;20062;-54
2022/10/31 09:58:28;;;;;;;19.92;13.02;;;13.30;99.90;;;;;;5017612;28;20033;-51
2022/10/31 10:01:00;;;;;;;19.05;12.98;;;13.30;99.90;;;;;;5017729;28;20026;-50
2022/10/31 10:03:38;;;;;;;17.40;12.50;;;13.30;99.90;;;;;;5023201;28;20045;-53
2022/10/31 10:06:18;;;;;;;14.13;9.88;;;13.30;99.90;;;;;;5017768;28;20072;-50
2022/10/31 10:08:44;;;;;;;18.33;13.13;;;13.30;99.90;;;;;;5006339;28;20053;-52
2022/10/31 10:11:46;;;;;;;15.15;11.13;;;13.40;99.90;;;;;;5021704;28;20504;-56
2022/10/31 10:14:35;;;;;;;16.80;11.93;;;13.40;99.90;;;;;;5021423;28;20029;-51
2022/10/31 10:17:31;;;;;;;19.77;13.20;;;13.40;99.90;;;;;;5020238;28;20030;-56
2022/10/31 10:20:25;;;;;;;17.67;12.80;;;13.50;99.90;;;;;;5021089;28;20021;-54
2022/10/31 10:22:54;;;;;;;17.65;11.80;;;13.50;99.90;;;;;;5023061;28;20119;-54
2022/10/31 10:25:44;;;;;;;17.00;12.30;;;13.50;99.90;;;;;;5017773;28;20053;-58
2022/10/31 10:28:38;;;;;;;15.35;11.00;;;13.60;99.90;;;;;;5020869;28;20034;-50
2022/10/31 10:31:36;;;;;;;16.95;10.13;;;13.60;99.90;;;;;;5017984;28;20030;-53
2022/10/31 10:34:18;;;;;;;17.58;10.95;;;13.50;99.90;;;;;;4998165;28;20053;-53
2022/10/31 10:36:53;;;;;;;17.77;12.40;;;13.60;99.90;;;;;;5023616;28;20105;-52
2022/10/31 10:39:23;;;;;;;19.08;13.68;;;13.40;99.90;;;;;;5015412;28;20040;-52
2022/10/31 10:47:41;;;;;;;14.95;10.80;;;13.20;99.90;;;;;;5012033;28;20623;-50
2022/10/31 10:50:15;;;;;;;15.85;12.18;;;13.30;99.90;;;;;;5018376;28;20026;-51
2022/10/31 10:52:47;;;;;;;16.15;11.40;;;13.30;99.90;;;;;;5015035;28;20052;-55
2022/10/31 10:55:37;;;;;;;16.15;11.35;;;13.40;99.90;;;;;;5021019;28;20063;-50
2022/10/31 10:58:06;;;;;;;16.23;11.10;;;13.40;99.90;;;;;;5019136;28;20041;-53
2022/10/31 11:00:37;;;;;;;19.65;11.93;;;13.40;99.90;;;;;;5016935;28;20030;-52
2022/10/31 11:03:04;;;;;;;16.88;11.90;;;13.50;99.90;;;;;;5013261;28;20415;-50
2022/10/31 11:05:35;;;;;;;15.93;11.07;;;13.50;99.90;;;;;;5016820;28;20398;-49
2022/10/31 11:08:01;;;;;;;18.48;10.93;;;13.60;99.90;;;;;;5019793;28;20036;-50
2022/10/31 11:10:28;;;;;;;12.25;10.02;;;13.60;99.90;;;;;;5015998;28;20022;-53
2022/10/31 11:13:15;;;;;;;14.30;10.75;;;13.60;99.90;;;;;;5020672;28;20021;-53
2022/10/31 11:15:52;;;;;;;13.93;10.85;;;13.70;99.90;;;;;;5006805;28;20484;-52
2022/10/31 11:18:25;;;;;;;13.35;9.82;;;13.70;99.90;;;;;;5013312;28;20018;-52
2022/10/31 11:20:54;;;;;;;13.25;9.63;;;13.80;99.90;;;;;;5019264;28;20699;-51
2022/10/31 11:23:22;;;;;;;13.52;8.85;;;13.80;99.90;;;;;;5021582;28;20030;-50
2022/10/31 11:25:52;;;;;;;15.02;8.63;;;13.80;99.90;;;;;;5017022;28;20102;-52
2022/10/31 11:28:17;;;;;;;10.65;7.80;;;13.90;99.90;;;;;;5015019;28;20491;-54
2022/10/31 11:30:50;;;;;;;10.85;7.95;;;13.90;99.90;;;;;;5017151;28;20033;-53
2022/10/31 11:33:26;;;;;;;10.52;7.18;;;13.90;99.90;;;;;;5015166;28;20024;-50
2022/10/31 11:35:53;;;;;;;9.75;7.18;;;13.90;99.90;;;;;;5015188;28;20034;-50
2022/10/31 11:38:21;;;;;;;15.95;8.98;;;13.90;99.90;;;;;;5021231;28;20109;-49
2022/10/31 11:40:53;;;;;;;10.80;8.23;;;13.80;99.90;;;;;;5018777;28;20047;-56
2022/10/31 11:43:19;;;;;;;12.40;8.38;;;13.80;99.90;;;;;;5009925;28;20061;-51
2022/10/31 11:45:44;;;;;;;13.07;8.57;;;13.90;99.90;;;;;;5015420;28;20017;-57
2022/10/31 11:48:20;;;;;;;16.60;9.98;;;13.90;99.90;;;;;;5020057;28;20365;-52
2022/10/31 11:50:56;;;;;;;14.15;9.10;;;13.90;99.90;;;;;;5020587;28;20014;-54
2022/10/31 11:53:27;;;;;;;12.27;8.27;;;14.00;99.90;;;;;;5006486;28;20037;-56
2022/10/31 11:56:13;;;;;;;10.60;7.35;;;14.00;99.90;;;;;;5011988;28;20386;-53
2022/10/31 11:58:39;;;;;;;11.63;9.48;;;14.00;99.90;;;;;;5011169;28;20057;-50
2022/10/31 12:01:05;;;;;;;12.43;8.98;;;13.80;99.90;;;;;;5017636;28;20373;-50
2022/10/31 12:04:04;;;;;;;12.45;7.50;;;13.80;99.90;;;;;;5021840;28;20079;-50
2022/10/31 12:06:34;;;;;;;11.75;7.97;;;13.80;99.90;;;;;;5010443;28;20034;-50
2022/10/31 12:08:59;;;;;;;14.88;9.38;;;13.80;99.90;;;;;;5020409;28;20018;-51
2022/10/31 12:11:34;;;;;;;11.77;8.38;;;13.90;99.90;;;;;;5023467;28;20052;-50
2022/10/31 12:14:24;;;;;;;13.65;8.88;;;14.00;99.90;;;;;;5022390;28;20057;-50
2022/10/31 12:17:05;;;;;;;13.90;9.43;;;14.00;99.90;;;;;;5020732;28;20049;-54
2022/10/31 12:19:56;;;;;;;12.30;8.52;;;14.10;99.90;;;;;;5022516;28;20052;-56
2022/10/31 12:22:43;;;;;;;11.55;8.68;;;14.10;99.90;;;;;;5014643;28;20507;-51
2022/10/31 12:25:28;;;;;;;15.82;9.63;;;14.20;99.90;;;;;;5012623;28;20117;-50
2022/10/31 12:28:32;;;;;;;13.88;9.48;;;14.10;99.90;;;;;;5020998;28;20053;-54
2022/10/31 12:31:06;;;;;;;14.65;10.60;;;14.00;99.90;;;;;;5021848;28;20033;-51
2022/10/31 12:33:58;;;;;;;14.00;10.18;;;14.00;99.90;;;;;;5019471;28;20109;-50
2022/10/31 12:36:40;;;;;;;13.00;9.57;;;14.00;99.90;;;;;;5014901;28;20057;-51
2022/10/31 12:39:13;;;;;;;13.48;9.32;;;14.00;99.90;;;;;;5021547;28;20017;-54
2022/10/31 12:41:50;;;;;;;12.05;8.43;;;14.00;99.90;;;;;;5025209;28;20034;-51
2022/10/31 12:44:41;;;;;;;13.55;9.85;;;14.10;99.90;;;;;;5016331;28;20696;-52
2022/10/31 12:47:51;;;;;;;15.02;9.85;;;14.20;99.90;;;;;;5027338;28;20021;-50
2022/10/31 12:50:26;;;;;;;13.75;10.20;;;14.20;99.90;;;;;;5017348;28;20032;-51